Dean Reinauer — WDG7107 — position and weather

sailwx.info

Track history (hours):
 
Tides and Currents Weather Stations Pressure Air Temp Water Temp Dewpoint Dewpoint Depression Visibility Wind Speed Wind Dir Waves Ship Positions

Dean Reinauer

Owner: REINAUER TRANSPORTATION CO.,LLC., STATEN ISLAND, NY. More information available from US FCC via Universal Licensing System and Coast Guard Vessel Documentation Center.

Last reported at 2017-Oct-15 18:37 UTC. Time now 2017-Oct-17 13:49 UTC.
Position N 40°60' W 073°53'.

Length 152 m; draft 6.7 m.

Type: . MMSI: 367563930.

Date/timePositionNaut miles runAvg speedWind from/ knotsBaromVisibWave heightAir tempDewpointWater temp
2017-Oct-15 18:37N 40°60' W 073°53'2 8.2
2017-Oct-15 18:20N 40°58' W 073°54'3 8.2
2017-Oct-15 18:00N 40°55' W 073°55'4 7.7
2017-Oct-15 17:30N 40°51' W 073°57'4 7.3
2017-Oct-15 17:00N 40°48' W 073°59'4 7.0
2017-Oct-15 16:30N 40°45' W 074°01'4 7.5
2017-Oct-15 16:00N 40°41' W 074°02'3 6.6
2017-Oct-15 15:30N 40°39' W 074°05'0 0.5
2017-Oct-15 15:00N 40°39' W 074°05'0 0.0
2017-Oct-15 14:00N 40°39' W 074°05'0 0.0
2017-Oct-15 13:30N 40°39' W 074°05'0 0.0
2017-Oct-15 12:57N 40°39' W 074°05'0 0.0
2017-Oct-15 12:27N 40°39' W 074°05'0 0.0
2017-Oct-15 11:57N 40°39' W 074°05'0 0.0
2017-Oct-15 11:24N 40°39' W 074°05'0 0.0
2017-Oct-15 10:57N 40°39' W 074°05'0 0.0
2017-Oct-15 10:30N 40°39' W 074°05'0 0.0
2017-Oct-15 09:57N 40°39' W 074°05'0 0.0
2017-Oct-15 09:27N 40°39' W 074°05'0 0.0
2017-Oct-15 09:00N 40°39' W 074°05'0 0.0
2017-Oct-15 08:30N 40°39' W 074°05'0 0.0
2017-Oct-15 08:00N 40°39' W 074°05'0 0.0
2017-Oct-15 07:30N 40°39' W 074°05'0 0.0
2017-Oct-15 07:00N 40°39' W 074°05'0 0.0
2017-Oct-15 06:30N 40°39' W 074°05'0 0.0
2017-Oct-15 06:00N 40°39' W 074°05'0 0.0
2017-Oct-15 05:30N 40°39' W 074°05'0 0.0
2017-Oct-15 05:00N 40°39' W 074°05'0 0.0
2017-Oct-15 04:30N 40°39' W 074°05'0 0.0
2017-Oct-15 04:00N 40°39' W 074°05'2 4.4
2017-Oct-15 03:30N 40°39' W 074°08'3 6.1
2017-Oct-15 03:00N 40°38' W 074°12'0 0.0
2017-Oct-15 02:30N 40°38' W 074°12'0 0.0
2017-Oct-15 02:00N 40°38' W 074°12'0 0.0
2017-Oct-15 01:30N 40°38' W 074°12'0 0.0
2017-Oct-15 01:00N 40°38' W 074°12'0 0.0
2017-Oct-15 00:30N 40°38' W 074°12'0 0.0
2017-Oct-15 00:00N 40°38' W 074°12'0 0.0
2017-Oct-14 23:30N 40°38' W 074°12'0 0.0
2017-Oct-14 23:00N 40°38' W 074°12'0 0.0
2017-Oct-14 22:30N 40°38' W 074°12'2 3.4
2017-Oct-14 22:01N 40°39' W 074°10'4 6.8
2017-Oct-14 21:30N 40°39' W 074°05'0 0.0
2017-Oct-14 20:59N 40°39' W 074°05'0 0.0
2017-Oct-14 20:29N 40°39' W 074°05'0 0.0
2017-Oct-14 19:57N 40°39' W 074°05'0 0.0
2017-Oct-14 19:30N 40°39' W 074°05'0 0.0
2017-Oct-14 18:59N 40°39' W 074°05'2 4.4
2017-Oct-14 18:30N 40°38' W 074°08'0 0.0
2017-Oct-14 18:00N 40°38' W 074°08'0 0.0
2017-Oct-14 17:30N 40°38' W 074°08'0 0.0
2017-Oct-14 16:59N 40°38' W 074°08'2 4.4
2017-Oct-14 16:30N 40°39' W 074°05'0 0.0
2017-Oct-14 15:59N 40°39' W 074°05'0 0.0
2017-Oct-14 15:29N 40°39' W 074°05'0 0.7
2017-Oct-14 15:00N 40°39' W 074°05'5 8.8
2017-Oct-14 14:29N 40°39' W 074°11'4 7.0
2017-Oct-14 14:00N 40°35' W 074°12'3 5.7
2017-Oct-14 13:30N 40°33' W 074°15'1 0.7
2017-Oct-14 12:49N 40°33' W 074°15'0 0.0
2017-Oct-14 12:25N 40°33' W 074°15'0 0.0
2017-Oct-14 11:31N 40°33' W 074°15'0 0.0
2017-Oct-14 11:25N 40°33' W 074°15'0 0.0
2017-Oct-14 10:55N 40°33' W 074°15'0 0.0
2017-Oct-14 10:25N 40°33' W 074°15'0 0.0
2017-Oct-14 09:55N 40°33' W 074°15'0 0.0
2017-Oct-14 08:25N 40°33' W 074°15'0 0.0
2017-Oct-14 07:52N 40°33' W 074°15'0 0.0
2017-Oct-14 07:28N 40°33' W 074°15'0 0.0
2017-Oct-14 06:37N 40°33' W 074°15'0 0.0
2017-Oct-14 06:19N 40°33' W 074°15'0 0.0
2017-Oct-14 05:49N 40°33' W 074°15'0 0.0
2017-Oct-14 05:25N 40°33' W 074°15'0 0.0
2017-Oct-14 04:55N 40°33' W 074°15'0 0.0
2017-Oct-14 04:19N 40°33' W 074°15'0 0.0
2017-Oct-14 03:49N 40°33' W 074°15'0 0.0
2017-Oct-14 03:07N 40°33' W 074°15'0 0.0
2017-Oct-14 02:07N 40°33' W 074°15'0 0.5
2017-Oct-14 01:57N 40°33' W 074°15'2 3.8
2017-Oct-14 01:29N 40°34' W 074°13'4 9.2
2017-Oct-14 01:00N 40°38' W 074°12'4 8.3
2017-Oct-14 00:30N 40°39' W 074°07'4 8.8
2017-Oct-14 00:00N 40°42' W 074°02'510.7
2017-Oct-13 23:30N 40°47' W 073°60'5 9.9
2017-Oct-13 23:00N 40°51' W 073°57'5 9.1
2017-Oct-13 22:30N 40°55' W 073°55'5 0.1
2017-Oct-11 22:52N 40°60' W 073°53'3 7.9
2017-Oct-11 22:30N 40°57' W 073°54'4 8.1
2017-Oct-11 22:00N 40°53' W 073°56'4 8.0
2017-Oct-11 21:29N 40°49' W 073°58'4 8.6
2017-Oct-11 21:00N 40°46' W 074°01'4 8.9
2017-Oct-11 20:30N 40°41' W 074°02'4 7.8
2017-Oct-11 20:00N 40°39' W 074°06'4 8.4
2017-Oct-11 19:30N 40°39' W 074°11'1 2.6
2017-Oct-11 19:00N 40°38' W 074°12'0 0.0
2017-Oct-11 18:30N 40°38' W 074°12'0 0.0
2017-Oct-11 17:58N 40°38' W 074°12'0 0.0
2017-Oct-11 17:25N 40°38' W 074°12'0 0.0
2017-Oct-11 16:49N 40°38' W 074°12'0 0.0
2017-Oct-10 23:58N 40°38' W 074°12'0 0.0
2017-Oct-10 23:28N 40°38' W 074°12'0 0.0
2017-Oct-10 22:58N 40°38' W 074°12'0 0.0
2017-Oct-10 22:28N 40°38' W 074°12'0 0.0
2017-Oct-10 21:58N 40°38' W 074°12'0 0.0
2017-Oct-10 20:52N 40°38' W 074°12'0 0.0
2017-Oct-10 20:28N 40°38' W 074°12'0 0.0
2017-Oct-10 19:40N 40°38' W 074°12'0 0.0
2017-Oct-10 18:31N 40°38' W 074°12'0 0.0
2017-Oct-10 18:13N 40°38' W 074°12'0 0.0
2017-Oct-10 17:43N 40°38' W 074°12'0 0.0
2017-Oct-10 17:28N 40°38' W 074°12'0 0.0
2017-Oct-10 16:55N 40°38' W 074°12'0 0.0
2017-Oct-10 15:13N 40°38' W 074°12'0 0.0
2017-Oct-10 14:55N 40°38' W 074°12'0 0.0
2017-Oct-10 13:58N 40°38' W 074°12'0 0.0
2017-Oct-10 13:28N 40°38' W 074°12'0 0.0
2017-Oct-10 12:58N 40°38' W 074°12'0 0.0
2017-Oct-10 12:28N 40°38' W 074°12'0 0.0
2017-Oct-10 11:58N 40°38' W 074°12'0 0.0
2017-Oct-10 11:28N 40°38' W 074°12'0 0.5
2017-Oct-10 11:00N 40°38' W 074°12'3 6.6
2017-Oct-10 10:30N 40°39' W 074°08'3 6.6
2017-Oct-10 10:00N 40°39' W 074°04'1 1.8
2017-Oct-10 09:31N 40°38' W 074°03'3 5.5
2017-Oct-10 09:00N 40°41' W 074°01'4 8.4
2017-Oct-10 08:30N 40°44' W 073°58'510.3
2017-Oct-10 08:00N 40°48' W 073°54'5 9.9
2017-Oct-10 07:30N 40°48' W 073°47'510.0
2017-Oct-10 06:59N 40°52' W 073°44'4610.1
2017-Oct-10 02:26N 41°05' W 072°45'4 9.9
2017-Oct-10 02:01N 41°06' W 072°40'5 9.8
2017-Oct-10 01:30N 41°08' W 072°34'5 9.4
2017-Oct-10 01:00N 41°09' W 072°28'4 8.2
2017-Oct-10 00:30N 41°10' W 072°22'4 7.4
2017-Oct-10 00:01N 41°11' W 072°18'4 7.7
2017-Oct-09 23:31N 41°12' W 072°13'3 6.9
2017-Oct-09 23:00N 41°14' W 072°09'45 7.2
2017-Oct-09 16:46N 41°39' W 071°19'3 9.6
2017-Oct-09 16:30N 41°41' W 071°19'5 9.4
2017-Oct-09 16:00N 41°45' W 071°22'3 0.2
2017-Oct-09 03:23N 41°48' W 071°23'0 0.0
2017-Oct-09 02:59N 41°48' W 071°23'0 0.0
2017-Oct-09 02:11N 41°48' W 071°23'0 0.0
2017-Oct-09 01:52N 41°48' W 071°23'0 0.0
2017-Oct-09 01:29N 41°48' W 071°23'1 0.1
2017-Oct-08 18:11N 41°48' W 071°24'1 1.5
2017-Oct-08 17:23N 41°47' W 071°23'3 6.7
2017-Oct-08 16:59N 41°45' W 071°22'4 8.4
2017-Oct-08 16:30N 41°41' W 071°19'46 7.6
2017-Oct-08 10:32N 41°14' W 072°07'011.4
2017-Oct-08 10:30N 41°14' W 072°08'611.3
2017-Oct-08 10:01N 41°12' W 072°15'611.8
2017-Oct-08 09:30N 41°10' W 072°22'611.7
2017-Oct-08 09:01N 41°09' W 072°30'611.1
2017-Oct-08 08:31N 41°07' W 072°37'510.7
2017-Oct-08 08:00N 41°06' W 072°44'44 9.4
2017-Oct-08 03:19N 40°55' W 073°40'3 8.7
2017-Oct-08 02:59N 40°53' W 073°43'4 8.8
2017-Oct-08 02:30N 40°50' W 073°47'4 7.6
2017-Oct-08 02:00N 40°48' W 073°51'5 9.1
2017-Oct-08 01:30N 40°46' W 073°57'4 7.7
2017-Oct-08 01:01N 40°43' W 073°58'3 6.9
2017-Oct-08 00:31N 40°40' W 074°02'3 5.6
2017-Oct-08 00:00N 40°39' W 074°05'2 4.9
2017-Oct-07 23:31N 40°39' W 074°08'3 5.6
2017-Oct-07 23:00N 40°38' W 074°12'0 0.5
2017-Oct-07 22:13N 40°38' W 074°12'0 0.0
2017-Oct-07 21:43N 40°38' W 074°12'0 0.0
2017-Oct-07 21:19N 40°38' W 074°12'0 0.0
2017-Oct-07 20:55N 40°38' W 074°12'0 0.0
2017-Oct-07 20:25N 40°38' W 074°12'0 0.0
2017-Oct-07 19:55N 40°38' W 074°12'0 0.0
2017-Oct-07 19:25N 40°38' W 074°12'0 0.0
2017-Oct-07 18:49N 40°38' W 074°12'0 0.0
2017-Oct-07 18:25N 40°38' W 074°12'0 0.0
2017-Oct-07 16:49N 40°38' W 074°12'0 0.0
2017-Oct-07 16:25N 40°38' W 074°12'0 0.0
2017-Oct-07 15:55N 40°38' W 074°12'0 0.0
2017-Oct-07 15:25N 40°38' W 074°12'0 0.0
2017-Oct-07 14:55N 40°38' W 074°12'0 0.0
2017-Oct-07 14:25N 40°38' W 074°12'0 0.0
2017-Oct-07 13:55N 40°38' W 074°12'0 0.0
2017-Oct-07 13:28N 40°38' W 074°12'0 0.0
2017-Oct-07 12:58N 40°38' W 074°12'0 0.0
2017-Oct-07 12:28N 40°38' W 074°12'0 0.0
2017-Oct-07 11:58N 40°38' W 074°12'0 0.0
2017-Oct-07 11:28N 40°38' W 074°12'0 0.0
2017-Oct-07 10:58N 40°38' W 074°12'0 0.0
2017-Oct-07 10:25N 40°38' W 074°12'0 0.0
2017-Oct-07 09:55N 40°38' W 074°12'0 0.0
2017-Oct-07 09:25N 40°38' W 074°12'0 0.0
2017-Oct-07 08:49N 40°38' W 074°12'0 0.0
2017-Oct-07 08:19N 40°38' W 074°12'0 0.0
2017-Oct-07 07:55N 40°38' W 074°12'0 0.0
2017-Oct-07 07:25N 40°38' W 074°12'0 0.0
2017-Oct-07 06:55N 40°38' W 074°12'0 0.0
2017-Oct-07 06:19N 40°38' W 074°12'0 0.0
2017-Oct-07 05:25N 40°38' W 074°12'0 0.0
2017-Oct-07 04:55N 40°38' W 074°12'0 0.0
2017-Oct-07 04:25N 40°38' W 074°12'0 0.0
2017-Oct-07 03:55N 40°38' W 074°12'0 0.0
2017-Oct-07 03:30N 40°38' W 074°12'2 4.0
2017-Oct-07 03:00N 40°39' W 074°10'2 5.0
2017-Oct-07 02:30N 40°39' W 074°07'4 7.1
2017-Oct-07 02:00N 40°37' W 074°03'2 3.1
2017-Oct-07 01:30N 40°36' W 074°02'0 0.2
2017-Oct-07 00:55N 40°36' W 074°01'0 0.1
2017-Oct-07 00:28N 40°36' W 074°01'0 0.0
2017-Oct-06 23:58N 40°36' W 074°01'0 0.1
2017-Oct-06 23:25N 40°36' W 074°02'0 0.0
2017-Oct-06 22:58N 40°36' W 074°02'0 0.0
2017-Oct-06 22:25N 40°36' W 074°02'0 0.0
2017-Oct-06 21:58N 40°36' W 074°01'0 0.0
2017-Oct-06 21:28N 40°36' W 074°02'0 0.0
2017-Oct-06 20:58N 40°36' W 074°02'0 0.1
2017-Oct-06 20:28N 40°36' W 074°01'0 0.3
2017-Oct-06 19:58N 40°36' W 074°01'0 0.1
2017-Oct-06 19:28N 40°36' W 074°01'0 0.1
2017-Oct-06 18:58N 40°36' W 074°01'0 0.1
2017-Oct-06 18:28N 40°36' W 074°01'0 0.1
2017-Oct-06 17:58N 40°36' W 074°01'0 0.0
2017-Oct-06 17:28N 40°36' W 074°01'0 0.0
2017-Oct-06 16:58N 40°36' W 074°01'0 0.0
2017-Oct-06 16:28N 40°36' W 074°01'0 0.1
2017-Oct-06 15:58N 40°36' W 074°01'0 0.0
2017-Oct-06 15:28N 40°36' W 074°01'0 0.0
2017-Oct-06 14:58N 40°36' W 074°01'0 0.1
2017-Oct-06 14:28N 40°36' W 074°01'0 0.1
2017-Oct-06 13:55N 40°36' W 074°01'0 0.1
2017-Oct-06 13:28N 40°36' W 074°01'0 0.2
2017-Oct-06 12:58N 40°36' W 074°01'0 0.1
2017-Oct-06 12:25N 40°36' W 074°01'0 0.1
2017-Oct-06 11:52N 40°36' W 074°01'0 0.1
2017-Oct-06 11:28N 40°36' W 074°01'0 0.1
2017-Oct-06 10:58N 40°36' W 074°01'0 0.0
2017-Oct-06 10:25N 40°36' W 074°01'0 0.0
2017-Oct-06 09:58N 40°36' W 074°01'0 0.0
2017-Oct-06 09:28N 40°36' W 074°01'0 0.1
2017-Oct-06 08:58N 40°36' W 074°01'0 0.2
2017-Oct-06 08:28N 40°36' W 074°01'0 0.2
2017-Oct-06 07:58N 40°36' W 074°01'0 0.0
2017-Oct-06 07:28N 40°36' W 074°01'0 0.0
2017-Oct-06 06:52N 40°36' W 074°01'0 0.0
2017-Oct-06 06:28N 40°36' W 074°01'0 0.0
2017-Oct-06 05:58N 40°36' W 074°01'0 0.0
2017-Oct-06 05:28N 40°36' W 074°01'0 0.0
2017-Oct-06 04:58N 40°36' W 074°01'0 0.0
2017-Oct-06 04:22N 40°36' W 074°01'0 0.0
2017-Oct-06 03:58N 40°36' W 074°01'0 0.0
2017-Oct-06 03:25N 40°36' W 074°01'0 0.1
2017-Oct-06 02:58N 40°36' W 074°01'0 0.0
2017-Oct-06 02:25N 40°36' W 074°01'0 0.0
2017-Oct-06 01:58N 40°36' W 074°01'0 0.1
2017-Oct-06 01:22N 40°36' W 074°01'0 0.2
2017-Oct-06 00:58N 40°36' W 074°01'0 0.0
2017-Oct-06 00:25N 40°36' W 074°01'0 0.0
2017-Oct-05 23:58N 40°36' W 074°01'0 0.1
2017-Oct-05 23:28N 40°36' W 074°01'0 0.0
2017-Oct-05 22:58N 40°36' W 074°01'0 0.1
2017-Oct-05 22:25N 40°36' W 074°01'0 0.0
2017-Oct-05 21:58N 40°36' W 074°01'0 0.0
2017-Oct-05 21:30N 40°36' W 074°01'0 0.0
2017-Oct-05 21:00N 40°36' W 074°01'0 0.0
2017-Oct-05 20:30N 40°36' W 074°01'0 0.1
2017-Oct-05 20:00N 40°36' W 074°01'0 0.2
2017-Oct-05 19:30N 40°36' W 074°01'0 0.1
2017-Oct-05 19:00N 40°36' W 074°01'  
Track history (hours):
 
Tides and Currents Weather Stations Pressure Air Temp Water Temp Dewpoint Dewpoint Depression Visibility Wind Speed Wind Dir Waves Ship Positions

Dean Reinauer

Owner: REINAUER TRANSPORTATION CO.,LLC., STATEN ISLAND, NY. More information available from US FCC via Universal Licensing System and Coast Guard Vessel Documentation Center.

Last reported at 2017-Oct-15 18:37 UTC. Time now 2017-Oct-17 13:49 UTC.
Position N 40°60' W 073°53'.

Length 152 m; draft 6.7 m.

Type: . MMSI: 367563930.

Date/timePositionNaut miles runAvg speedWind from/ knotsBaromVisibWave heightAir tempDewpointWater temp
2017-Oct-15 18:37N 40°60' W 073°53'2 8.2
2017-Oct-15 18:20N 40°58' W 073°54'3 8.2
2017-Oct-15 18:00N 40°55' W 073°55'4 7.7
2017-Oct-15 17:30N 40°51' W 073°57'4 7.3
2017-Oct-15 17:00N 40°48' W 073°59'4 7.0
2017-Oct-15 16:30N 40°45' W 074°01'4 7.5
2017-Oct-15 16:00N 40°41' W 074°02'3 6.6
2017-Oct-15 15:30N 40°39' W 074°05'0 0.5
2017-Oct-15 15:00N 40°39' W 074°05'0 0.0
2017-Oct-15 14:00N 40°39' W 074°05'0 0.0
2017-Oct-15 13:30N 40°39' W 074°05'0 0.0
2017-Oct-15 12:57N 40°39' W 074°05'0 0.0
2017-Oct-15 12:27N 40°39' W 074°05'0 0.0
2017-Oct-15 11:57N 40°39' W 074°05'0 0.0
2017-Oct-15 11:24N 40°39' W 074°05'0 0.0
2017-Oct-15 10:57N 40°39' W 074°05'0 0.0
2017-Oct-15 10:30N 40°39' W 074°05'0 0.0
2017-Oct-15 09:57N 40°39' W 074°05'0 0.0
2017-Oct-15 09:27N 40°39' W 074°05'0 0.0
2017-Oct-15 09:00N 40°39' W 074°05'0 0.0
2017-Oct-15 08:30N 40°39' W 074°05'0 0.0
2017-Oct-15 08:00N 40°39' W 074°05'0 0.0
2017-Oct-15 07:30N 40°39' W 074°05'0 0.0
2017-Oct-15 07:00N 40°39' W 074°05'0 0.0
2017-Oct-15 06:30N 40°39' W 074°05'0 0.0
2017-Oct-15 06:00N 40°39' W 074°05'0 0.0
2017-Oct-15 05:30N 40°39' W 074°05'0 0.0
2017-Oct-15 05:00N 40°39' W 074°05'0 0.0
2017-Oct-15 04:30N 40°39' W 074°05'0 0.0
2017-Oct-15 04:00N 40°39' W 074°05'2 4.4
2017-Oct-15 03:30N 40°39' W 074°08'3 6.1
2017-Oct-15 03:00N 40°38' W 074°12'0 0.0
2017-Oct-15 02:30N 40°38' W 074°12'0 0.0
2017-Oct-15 02:00N 40°38' W 074°12'0 0.0
2017-Oct-15 01:30N 40°38' W 074°12'0 0.0
2017-Oct-15 01:00N 40°38' W 074°12'0 0.0
2017-Oct-15 00:30N 40°38' W 074°12'0 0.0
2017-Oct-15 00:00N 40°38' W 074°12'0 0.0
2017-Oct-14 23:30N 40°38' W 074°12'0 0.0
2017-Oct-14 23:00N 40°38' W 074°12'0 0.0
2017-Oct-14 22:30N 40°38' W 074°12'2 3.4
2017-Oct-14 22:01N 40°39' W 074°10'4 6.8
2017-Oct-14 21:30N 40°39' W 074°05'0 0.0
2017-Oct-14 20:59N 40°39' W 074°05'0 0.0
2017-Oct-14 20:29N 40°39' W 074°05'0 0.0
2017-Oct-14 19:57N 40°39' W 074°05'0 0.0
2017-Oct-14 19:30N 40°39' W 074°05'0 0.0
2017-Oct-14 18:59N 40°39' W 074°05'2 4.4
2017-Oct-14 18:30N 40°38' W 074°08'0 0.0
2017-Oct-14 18:00N 40°38' W 074°08'0 0.0
2017-Oct-14 17:30N 40°38' W 074°08'0 0.0
2017-Oct-14 16:59N 40°38' W 074°08'2 4.4
2017-Oct-14 16:30N 40°39' W 074°05'0 0.0
2017-Oct-14 15:59N 40°39' W 074°05'0 0.0
2017-Oct-14 15:29N 40°39' W 074°05'0 0.7
2017-Oct-14 15:00N 40°39' W 074°05'5 8.8
2017-Oct-14 14:29N 40°39' W 074°11'4 7.0
2017-Oct-14 14:00N 40°35' W 074°12'3 5.7
2017-Oct-14 13:30N 40°33' W 074°15'1 0.7
2017-Oct-14 12:49N 40°33' W 074°15'0 0.0
2017-Oct-14 12:25N 40°33' W 074°15'0 0.0
2017-Oct-14 11:31N 40°33' W 074°15'0 0.0
2017-Oct-14 11:25N 40°33' W 074°15'0 0.0
2017-Oct-14 10:55N 40°33' W 074°15'0 0.0
2017-Oct-14 10:25N 40°33' W 074°15'0 0.0
2017-Oct-14 09:55N 40°33' W 074°15'0 0.0
2017-Oct-14 08:25N 40°33' W 074°15'0 0.0
2017-Oct-14 07:52N 40°33' W 074°15'0 0.0
2017-Oct-14 07:28N 40°33' W 074°15'0 0.0
2017-Oct-14 06:37N 40°33' W 074°15'0 0.0
2017-Oct-14 06:19N 40°33' W 074°15'0 0.0
2017-Oct-14 05:49N 40°33' W 074°15'0 0.0
2017-Oct-14 05:25N 40°33' W 074°15'0 0.0
2017-Oct-14 04:55N 40°33' W 074°15'0 0.0
2017-Oct-14 04:19N 40°33' W 074°15'0 0.0
2017-Oct-14 03:49N 40°33' W 074°15'0 0.0
2017-Oct-14 03:07N 40°33' W 074°15'0 0.0
2017-Oct-14 02:07N 40°33' W 074°15'0 0.5
2017-Oct-14 01:57N 40°33' W 074°15'2 3.8
2017-Oct-14 01:29N 40°34' W 074°13'4 9.2
2017-Oct-14 01:00N 40°38' W 074°12'4 8.3
2017-Oct-14 00:30N 40°39' W 074°07'4 8.8
2017-Oct-14 00:00N 40°42' W 074°02'510.7
2017-Oct-13 23:30N 40°47' W 073°60'5 9.9
2017-Oct-13 23:00N 40°51' W 073°57'5 9.1
2017-Oct-13 22:30N 40°55' W 073°55'5 0.1
2017-Oct-11 22:52N 40°60' W 073°53'3 7.9
2017-Oct-11 22:30N 40°57' W 073°54'4 8.1
2017-Oct-11 22:00N 40°53' W 073°56'4 8.0
2017-Oct-11 21:29N 40°49' W 073°58'4 8.6
2017-Oct-11 21:00N 40°46' W 074°01'4 8.9
2017-Oct-11 20:30N 40°41' W 074°02'4 7.8
2017-Oct-11 20:00N 40°39' W 074°06'4 8.4
2017-Oct-11 19:30N 40°39' W 074°11'1 2.6
2017-Oct-11 19:00N 40°38' W 074°12'0 0.0
2017-Oct-11 18:30N 40°38' W 074°12'0 0.0
2017-Oct-11 17:58N 40°38' W 074°12'0 0.0
2017-Oct-11 17:25N 40°38' W 074°12'0 0.0
2017-Oct-11 16:49N 40°38' W 074°12'0 0.0
2017-Oct-10 23:58N 40°38' W 074°12'0 0.0
2017-Oct-10 23:28N 40°38' W 074°12'0 0.0
2017-Oct-10 22:58N 40°38' W 074°12'0 0.0
2017-Oct-10 22:28N 40°38' W 074°12'0 0.0
2017-Oct-10 21:58N 40°38' W 074°12'0 0.0
2017-Oct-10 20:52N 40°38' W 074°12'0 0.0
2017-Oct-10 20:28N 40°38' W 074°12'0 0.0
2017-Oct-10 19:40N 40°38' W 074°12'0 0.0
2017-Oct-10 18:31N 40°38' W 074°12'0 0.0
2017-Oct-10 18:13N 40°38' W 074°12'0 0.0
2017-Oct-10 17:43N 40°38' W 074°12'0 0.0
2017-Oct-10 17:28N 40°38' W 074°12'0 0.0
2017-Oct-10 16:55N 40°38' W 074°12'0 0.0
2017-Oct-10 15:13N 40°38' W 074°12'0 0.0
2017-Oct-10 14:55N 40°38' W 074°12'0 0.0
2017-Oct-10 13:58N 40°38' W 074°12'0 0.0
2017-Oct-10 13:28N 40°38' W 074°12'0 0.0
2017-Oct-10 12:58N 40°38' W 074°12'0 0.0
2017-Oct-10 12:28N 40°38' W 074°12'0 0.0
2017-Oct-10 11:58N 40°38' W 074°12'0 0.0
2017-Oct-10 11:28N 40°38' W 074°12'0 0.5
2017-Oct-10 11:00N 40°38' W 074°12'3 6.6
2017-Oct-10 10:30N 40°39' W 074°08'3 6.6
2017-Oct-10 10:00N 40°39' W 074°04'1 1.8
2017-Oct-10 09:31N 40°38' W 074°03'3 5.5
2017-Oct-10 09:00N 40°41' W 074°01'4 8.4
2017-Oct-10 08:30N 40°44' W 073°58'510.3
2017-Oct-10 08:00N 40°48' W 073°54'5 9.9
2017-Oct-10 07:30N 40°48' W 073°47'510.0
2017-Oct-10 06:59N 40°52' W 073°44'4610.1
2017-Oct-10 02:26N 41°05' W 072°45'4 9.9
2017-Oct-10 02:01N 41°06' W 072°40'5 9.8
2017-Oct-10 01:30N 41°08' W 072°34'5 9.4
2017-Oct-10 01:00N 41°09' W 072°28'4 8.2
2017-Oct-10 00:30N 41°10' W 072°22'4 7.4
2017-Oct-10 00:01N 41°11' W 072°18'4 7.7
2017-Oct-09 23:31N 41°12' W 072°13'3 6.9
2017-Oct-09 23:00N 41°14' W 072°09'45 7.2
2017-Oct-09 16:46N 41°39' W 071°19'3 9.6
2017-Oct-09 16:30N 41°41' W 071°19'5 9.4
2017-Oct-09 16:00N 41°45' W 071°22'3 0.2
2017-Oct-09 03:23N 41°48' W 071°23'0 0.0
2017-Oct-09 02:59N 41°48' W 071°23'0 0.0
2017-Oct-09 02:11N 41°48' W 071°23'0 0.0
2017-Oct-09 01:52N 41°48' W 071°23'0 0.0
2017-Oct-09 01:29N 41°48' W 071°23'1 0.1
2017-Oct-08 18:11N 41°48' W 071°24'1 1.5
2017-Oct-08 17:23N 41°47' W 071°23'3 6.7
2017-Oct-08 16:59N 41°45' W 071°22'4 8.4
2017-Oct-08 16:30N 41°41' W 071°19'46 7.6
2017-Oct-08 10:32N 41°14' W 072°07'011.4
2017-Oct-08 10:30N 41°14' W 072°08'611.3
2017-Oct-08 10:01N 41°12' W 072°15'611.8
2017-Oct-08 09:30N 41°10' W 072°22'611.7
2017-Oct-08 09:01N 41°09' W 072°30'611.1
2017-Oct-08 08:31N 41°07' W 072°37'510.7
2017-Oct-08 08:00N 41°06' W 072°44'44 9.4
2017-Oct-08 03:19N 40°55' W 073°40'3 8.7
2017-Oct-08 02:59N 40°53' W 073°43'4 8.8
2017-Oct-08 02:30N 40°50' W 073°47'4 7.6
2017-Oct-08 02:00N 40°48' W 073°51'5 9.1
2017-Oct-08 01:30N 40°46' W 073°57'4 7.7
2017-Oct-08 01:01N 40°43' W 073°58'3 6.9
2017-Oct-08 00:31N 40°40' W 074°02'3 5.6
2017-Oct-08 00:00N 40°39' W 074°05'2 4.9
2017-Oct-07 23:31N 40°39' W 074°08'3 5.6
2017-Oct-07 23:00N 40°38' W 074°12'0 0.5
2017-Oct-07 22:13N 40°38' W 074°12'0 0.0
2017-Oct-07 21:43N 40°38' W 074°12'0 0.0
2017-Oct-07 21:19N 40°38' W 074°12'0 0.0
2017-Oct-07 20:55N 40°38' W 074°12'0 0.0
2017-Oct-07 20:25N 40°38' W 074°12'0 0.0
2017-Oct-07 19:55N 40°38' W 074°12'0 0.0
2017-Oct-07 19:25N 40°38' W 074°12'0 0.0
2017-Oct-07 18:49N 40°38' W 074°12'0 0.0
2017-Oct-07 18:25N 40°38' W 074°12'0 0.0
2017-Oct-07 16:49N 40°38' W 074°12'0 0.0
2017-Oct-07 16:25N 40°38' W 074°12'0 0.0
2017-Oct-07 15:55N 40°38' W 074°12'0 0.0
2017-Oct-07 15:25N 40°38' W 074°12'0 0.0
2017-Oct-07 14:55N 40°38' W 074°12'0 0.0
2017-Oct-07 14:25N 40°38' W 074°12'0 0.0
2017-Oct-07 13:55N 40°38' W 074°12'0 0.0
2017-Oct-07 13:28N 40°38' W 074°12'0 0.0
2017-Oct-07 12:58N 40°38' W 074°12'0 0.0
2017-Oct-07 12:28N 40°38' W 074°12'0 0.0
2017-Oct-07 11:58N 40°38' W 074°12'0 0.0
2017-Oct-07 11:28N 40°38' W 074°12'0 0.0
2017-Oct-07 10:58N 40°38' W 074°12'0 0.0
2017-Oct-07 10:25N 40°38' W 074°12'0 0.0
2017-Oct-07 09:55N 40°38' W 074°12'0 0.0
2017-Oct-07 09:25N 40°38' W 074°12'0 0.0
2017-Oct-07 08:49N 40°38' W 074°12'0 0.0
2017-Oct-07 08:19N 40°38' W 074°12'0 0.0
2017-Oct-07 07:55N 40°38' W 074°12'0 0.0
2017-Oct-07 07:25N 40°38' W 074°12'0 0.0
2017-Oct-07 06:55N 40°38' W 074°12'0 0.0
2017-Oct-07 06:19N 40°38' W 074°12'0 0.0
2017-Oct-07 05:25N 40°38' W 074°12'0 0.0
2017-Oct-07 04:55N 40°38' W 074°12'0 0.0
2017-Oct-07 04:25N 40°38' W 074°12'0 0.0
2017-Oct-07 03:55N 40°38' W 074°12'0 0.0
2017-Oct-07 03:30N 40°38' W 074°12'2 4.0
2017-Oct-07 03:00N 40°39' W 074°10'2 5.0
2017-Oct-07 02:30N 40°39' W 074°07'4 7.1
2017-Oct-07 02:00N 40°37' W 074°03'2 3.1
2017-Oct-07 01:30N 40°36' W 074°02'0 0.2
2017-Oct-07 00:55N 40°36' W 074°01'0 0.1
2017-Oct-07 00:28N 40°36' W 074°01'0 0.0
2017-Oct-06 23:58N 40°36' W 074°01'0 0.1
2017-Oct-06 23:25N 40°36' W 074°02'0 0.0
2017-Oct-06 22:58N 40°36' W 074°02'0 0.0
2017-Oct-06 22:25N 40°36' W 074°02'0 0.0
2017-Oct-06 21:58N 40°36' W 074°01'0 0.0
2017-Oct-06 21:28N 40°36' W 074°02'0 0.0
2017-Oct-06 20:58N 40°36' W 074°02'0 0.1
2017-Oct-06 20:28N 40°36' W 074°01'0 0.3
2017-Oct-06 19:58N 40°36' W 074°01'0 0.1
2017-Oct-06 19:28N 40°36' W 074°01'0 0.1
2017-Oct-06 18:58N 40°36' W 074°01'0 0.1
2017-Oct-06 18:28N 40°36' W 074°01'0 0.1
2017-Oct-06 17:58N 40°36' W 074°01'0 0.0
2017-Oct-06 17:28N 40°36' W 074°01'0 0.0
2017-Oct-06 16:58N 40°36' W 074°01'0 0.0
2017-Oct-06 16:28N 40°36' W 074°01'0 0.1
2017-Oct-06 15:58N 40°36' W 074°01'0 0.0
2017-Oct-06 15:28N 40°36' W 074°01'0 0.0
2017-Oct-06 14:58N 40°36' W 074°01'0 0.1
2017-Oct-06 14:28N 40°36' W 074°01'0 0.1
2017-Oct-06 13:55N 40°36' W 074°01'0 0.1
2017-Oct-06 13:28N 40°36' W 074°01'0 0.2
2017-Oct-06 12:58N 40°36' W 074°01'0 0.1
2017-Oct-06 12:25N 40°36' W 074°01'0 0.1
2017-Oct-06 11:52N 40°36' W 074°01'0 0.1
2017-Oct-06 11:28N 40°36' W 074°01'0 0.1
2017-Oct-06 10:58N 40°36' W 074°01'0 0.0
2017-Oct-06 10:25N 40°36' W 074°01'0 0.0
2017-Oct-06 09:58N 40°36' W 074°01'0 0.0
2017-Oct-06 09:28N 40°36' W 074°01'0 0.1
2017-Oct-06 08:58N 40°36' W 074°01'0 0.2
2017-Oct-06 08:28N 40°36' W 074°01'0 0.2
2017-Oct-06 07:58N 40°36' W 074°01'0 0.0
2017-Oct-06 07:28N 40°36' W 074°01'0 0.0
2017-Oct-06 06:52N 40°36' W 074°01'0 0.0
2017-Oct-06 06:28N 40°36' W 074°01'0 0.0
2017-Oct-06 05:58N 40°36' W 074°01'0 0.0
2017-Oct-06 05:28N 40°36' W 074°01'0 0.0
2017-Oct-06 04:58N 40°36' W 074°01'0 0.0
2017-Oct-06 04:22N 40°36' W 074°01'0 0.0
2017-Oct-06 03:58N 40°36' W 074°01'0 0.0
2017-Oct-06 03:25N 40°36' W 074°01'0 0.1
2017-Oct-06 02:58N 40°36' W 074°01'0 0.0
2017-Oct-06 02:25N 40°36' W 074°01'0 0.0
2017-Oct-06 01:58N 40°36' W 074°01'0 0.1
2017-Oct-06 01:22N 40°36' W 074°01'0 0.2
2017-Oct-06 00:58N 40°36' W 074°01'0 0.0
2017-Oct-06 00:25N 40°36' W 074°01'0 0.0
2017-Oct-05 23:58N 40°36' W 074°01'0 0.1
2017-Oct-05 23:28N 40°36' W 074°01'0 0.0
2017-Oct-05 22:58N 40°36' W 074°01'0 0.1
2017-Oct-05 22:25N 40°36' W 074°01'0 0.0
2017-Oct-05 21:58N 40°36' W 074°01'0 0.0
2017-Oct-05 21:30N 40°36' W 074°01'0 0.0
2017-Oct-05 21:00N 40°36' W 074°01'0 0.0
2017-Oct-05 20:30N 40°36' W 074°01'0 0.1
2017-Oct-05 20:00N 40°36' W 074°01'0 0.2
2017-Oct-05 19:30N 40°36' W 074°01'0 0.1
2017-Oct-05 19:00N 40°36' W 074°01'  

Dump ship's entire track history